createdAt,value
2019-04-29T00:02:33.944Z,21.90
2019-04-29T00:05:03.921Z,20.07
2019-04-29T00:07:33.741Z,15.87
2019-04-29T00:10:04.920Z,20.47
2019-04-29T00:12:34.915Z,20.80
2019-04-29T00:15:08.207Z,19.40
2019-04-29T00:17:39.663Z,22.13
2019-04-29T00:20:11.141Z,22.27
2019-04-29T00:22:40.891Z,17.17
2019-04-29T00:25:11.012Z,18.57
2019-04-29T00:27:40.877Z,18.80
2019-04-29T00:30:12.575Z,20.23
2019-04-29T00:32:42.379Z,22.37
2019-04-29T00:35:12.221Z,23.17
2019-04-29T00:37:43.759Z,19.83
2019-04-29T00:40:31.644Z,22.93
2019-04-29T00:43:03.104Z,18.73
2019-04-29T00:45:33.009Z,81.30
2019-04-29T00:48:02.895Z,37.13
2019-04-29T00:50:32.722Z,52.43
2019-04-29T00:53:02.677Z,18.00
2019-04-29T00:55:33.949Z,20.00
2019-04-29T00:58:03.726Z,15.87
2019-04-29T01:00:35.370Z,16.90
2019-04-29T01:03:05.462Z,17.67
2019-04-29T01:05:35.745Z,17.03
2019-04-29T01:08:05.687Z,22.23
2019-04-29T01:10:35.575Z,19.43
2019-04-29T01:13:05.414Z,19.53
2019-04-29T01:15:35.357Z,23.83
2019-04-29T01:18:05.356Z,18.57
2019-04-29T01:20:35.201Z,22.73
2019-04-29T01:23:05.389Z,183.23
2019-04-29T01:25:35.278Z,74.83
2019-04-29T01:28:09.925Z,31.53
2019-04-29T01:31:00.217Z,28.50
2019-04-29T01:33:29.988Z,27.77
2019-04-29T01:36:04.137Z,23.77
2019-04-29T01:38:33.915Z,24.80
2019-04-29T01:41:08.391Z,26.53
2019-04-29T01:43:56.034Z,22.23
2019-04-29T01:46:25.895Z,24.60
2019-04-29T01:48:55.780Z,22.93
2019-04-29T01:51:25.667Z,26.27
2019-04-29T01:53:55.620Z,28.63
2019-04-29T01:56:25.391Z,46.27
2019-04-29T01:58:55.275Z,93.10
2019-04-29T02:01:25.168Z,94.90
2019-04-29T02:03:55.035Z,132.80
2019-04-29T02:06:24.810Z,148.07
2019-04-29T02:08:55.795Z,43.67
2019-04-29T02:11:25.703Z,34.57
2019-04-29T02:13:55.581Z,22.97
2019-04-29T02:16:25.424Z,18.10
2019-04-29T02:18:55.194Z,20.37
2019-04-29T02:21:25.182Z,20.07
2019-04-29T02:23:56.619Z,28.40
2019-04-29T02:26:26.480Z,33.57
2019-04-29T02:28:56.362Z,31.17
2019-04-29T02:31:38.989Z,30.00
2019-04-29T02:34:08.935Z,24.70
2019-04-29T02:36:38.943Z,22.77
2019-04-29T02:39:16.561Z,24.87
2019-04-29T02:41:50.982Z,26.50
2019-04-29T02:44:20.767Z,22.90
2019-04-29T02:46:50.540Z,25.00
2019-04-29T02:49:20.447Z,24.97
2019-04-29T02:51:51.882Z,25.20
2019-04-29T02:54:24.070Z,29.37
2019-04-29T02:57:10.573Z,30.00
2019-04-29T02:59:42.011Z,39.10
2019-04-29T03:02:13.450Z,39.30
2019-04-29T03:04:50.695Z,43.60
2019-04-29T03:07:21.549Z,36.60
2019-04-29T03:09:51.569Z,36.03
2019-04-29T03:12:21.522Z,45.13
2019-04-29T03:14:51.418Z,43.07
2019-04-29T03:17:21.384Z,42.53
2019-04-29T03:20:09.378Z,42.03
2019-04-29T03:22:40.889Z,47.10
2019-04-29T03:25:10.873Z,45.37
2019-04-29T03:27:40.550Z,37.50
2019-04-29T03:30:10.994Z,43.60
2019-04-29T03:32:40.689Z,37.00
2019-04-29T03:35:10.578Z,44.80
2019-04-29T03:37:40.270Z,46.87
2019-04-29T03:40:10.180Z,45.37
2019-04-29T03:42:39.887Z,46.83
2019-04-29T03:45:09.874Z,47.73
2019-04-29T03:47:39.661Z,45.80
2019-04-29T03:50:09.529Z,54.40
2019-04-29T03:52:39.378Z,45.63
2019-04-29T03:55:09.457Z,46.57
2019-04-29T03:57:39.363Z,50.97
2019-04-29T04:00:10.707Z,43.30
2019-04-29T04:02:42.112Z,45.37
2019-04-29T04:05:19.847Z,48.73
2019-04-29T04:07:51.268Z,46.83
2019-04-29T04:10:21.204Z,49.83
2019-04-29T04:12:51.021Z,55.03
2019-04-29T04:15:20.990Z,54.17
2019-04-29T04:17:58.421Z,48.27
2019-04-29T04:20:28.434Z,52.53
2019-04-29T04:22:58.373Z,49.97
2019-04-29T04:25:28.178Z,51.00
2019-04-29T04:27:58.028Z,52.03
2019-04-29T04:30:27.898Z,53.23
2019-04-29T04:32:57.706Z,49.97
2019-04-29T04:35:27.679Z,43.73
2019-04-29T04:37:57.560Z,46.53
2019-04-29T04:40:41.222Z,46.47
2019-04-29T04:43:11.081Z,48.30
2019-04-29T04:45:40.878Z,45.80
2019-04-29T04:48:10.710Z,48.33
2019-04-29T04:50:40.591Z,47.50
2019-04-29T04:53:10.819Z,44.63
2019-04-29T04:55:42.244Z,47.60
2019-04-29T04:58:11.962Z,46.17
2019-04-29T05:00:41.905Z,48.97
2019-04-29T05:03:11.689Z,49.17
2019-04-29T05:05:42.808Z,49.03
2019-04-29T05:08:12.795Z,50.47
2019-04-29T05:10:42.755Z,46.40
2019-04-29T05:13:12.519Z,47.70
2019-04-29T05:15:42.392Z,41.67
2019-04-29T05:18:12.228Z,42.40
2019-04-29T05:20:42.171Z,45.83
2019-04-29T05:23:11.947Z,41.33
2019-04-29T05:25:41.750Z,42.03
2019-04-29T05:28:11.459Z,40.30
2019-04-29T05:30:41.283Z,39.87
2019-04-29T05:33:10.990Z,40.17
2019-04-29T05:35:48.714Z,40.10
2019-04-29T05:38:37.987Z,34.40
2019-04-29T05:41:07.865Z,36.87
2019-04-29T05:43:42.075Z,36.70
2019-04-29T05:46:17.473Z,34.03
2019-04-29T05:48:48.097Z,35.63
2019-04-29T05:51:31.375Z,36.13
2019-04-29T05:54:08.504Z,32.53
2019-04-29T05:56:38.453Z,34.77
2019-04-29T05:59:08.445Z,36.03
2019-04-29T06:01:42.598Z,31.93
2019-04-29T06:04:15.767Z,34.67
2019-04-29T06:06:42.988Z,33.30
2019-04-29T06:09:16.734Z,33.80
2019-04-29T06:11:44.260Z,31.83
2019-04-29T06:14:14.257Z,30.20
2019-04-29T06:16:44.011Z,29.63
2019-04-29T06:19:13.811Z,30.93
2019-04-29T06:21:43.580Z,29.60
2019-04-29T06:24:13.397Z,29.00
2019-04-29T06:26:43.777Z,27.83
2019-04-29T06:29:13.772Z,30.97
2019-04-29T06:31:43.540Z,27.03
2019-04-29T06:34:13.348Z,26.67
2019-04-29T06:36:43.131Z,27.93
2019-04-29T06:39:12.907Z,27.13
2019-04-29T06:41:45.430Z,29.20
2019-04-29T06:44:16.629Z,27.43
2019-04-29T06:46:45.734Z,26.23
2019-04-29T06:49:15.505Z,29.33
2019-04-29T06:51:45.354Z,26.33
2019-04-29T06:54:15.188Z,27.43
2019-04-29T06:56:44.916Z,23.97
2019-04-29T06:59:14.776Z,21.37
2019-04-29T07:01:44.646Z,24.23
2019-04-29T07:04:14.448Z,19.27
2019-04-29T07:06:56.744Z,22.37
2019-04-29T07:09:15.723Z,19.17
2019-04-29T07:11:45.586Z,21.03
2019-04-29T07:14:15.297Z,20.60
2019-04-29T07:16:45.108Z,19.90
2019-04-29T07:19:14.820Z,20.00
2019-04-29T07:21:46.874Z,18.47
2019-04-29T07:24:16.093Z,19.30
2019-04-29T07:26:45.912Z,16.20
2019-04-29T07:29:15.746Z,19.30
2019-04-29T07:31:45.795Z,15.63
2019-04-29T07:34:15.569Z,13.93
2019-04-29T07:36:45.415Z,14.30
2019-04-29T07:39:15.194Z,12.53
2019-04-29T07:41:44.986Z,11.10
2019-04-29T07:44:18.435Z,13.23
2019-04-29T07:46:56.625Z,14.37
2019-04-29T07:49:22.397Z,11.10
2019-04-29T07:51:52.311Z,12.27
2019-04-29T07:54:22.267Z,12.67
2019-04-29T07:56:52.063Z,9.80
2019-04-29T07:59:21.745Z,9.73
2019-04-29T08:01:51.524Z,8.63
2019-04-29T08:04:21.259Z,10.40
2019-04-29T08:06:51.766Z,11.23
2019-04-29T08:09:21.778Z,8.97
2019-04-29T08:11:52.035Z,8.53
2019-04-29T08:14:23.058Z,10.83
2019-04-29T08:16:52.935Z,11.17
2019-04-29T08:19:24.574Z,8.93
2019-04-29T08:21:54.199Z,8.57
2019-04-29T08:24:24.009Z,10.63
2019-04-29T08:26:53.746Z,9.97
2019-04-29T08:29:23.452Z,9.90
2019-04-29T08:31:56.780Z,9.50
2019-04-29T08:34:24.812Z,10.40
2019-04-29T08:36:54.609Z,9.13
2019-04-29T08:39:25.124Z,9.97
2019-04-29T08:41:58.872Z,11.93
2019-04-29T08:44:29.644Z,12.67
2019-04-29T08:47:17.287Z,7.47
2019-04-29T08:49:47.054Z,6.97
2019-04-29T08:52:17.052Z,9.43
2019-04-29T08:54:50.786Z,7.37
2019-04-29T08:57:18.487Z,8.43
2019-04-29T08:59:48.422Z,9.40
2019-04-29T09:02:33.239Z,8.10
2019-04-29T09:04:53.766Z,7.80
2019-04-29T09:07:22.323Z,8.47
2019-04-29T09:09:56.314Z,7.40
2019-04-29T09:12:29.336Z,8.33
2019-04-29T09:14:58.031Z,7.60
2019-04-29T09:17:27.877Z,6.93
2019-04-29T09:19:57.692Z,8.10
2019-04-29T09:22:29.091Z,6.60
2019-04-29T09:25:06.670Z,7.67
2019-04-29T09:27:40.722Z,7.50
2019-04-29T09:30:10.603Z,7.27
2019-04-29T09:32:40.449Z,8.10
2019-04-29T09:35:10.620Z,9.60
2019-04-29T09:37:40.374Z,8.67
2019-04-29T09:40:12.677Z,8.93
2019-04-29T09:42:45.543Z,9.77
2019-04-29T09:45:33.603Z,11.93
2019-04-29T09:48:03.518Z,10.40
2019-04-29T09:50:34.210Z,13.00
2019-04-29T09:53:05.417Z,13.30
2019-04-29T09:55:35.620Z,13.77
2019-04-29T09:58:07.799Z,15.03
2019-04-29T10:00:40.672Z,16.23
2019-04-29T10:03:15.918Z,18.37
2019-04-29T10:06:04.370Z,19.67
2019-04-29T10:08:34.418Z,18.77
2019-04-29T10:11:04.377Z,20.20
2019-04-29T10:13:34.262Z,23.27
2019-04-29T10:16:24.289Z,23.03
2019-04-29T10:19:07.856Z,27.03
2019-04-29T10:21:37.646Z,25.37
2019-04-29T10:24:10.396Z,26.87
2019-04-29T10:26:40.336Z,32.67
2019-04-29T10:29:13.759Z,28.67
2019-04-29T10:31:43.426Z,30.57
2019-04-29T10:34:13.574Z,31.90
2019-04-29T10:36:43.455Z,29.33
2019-04-29T10:39:22.954Z,32.47
2019-04-29T10:41:54.713Z,32.63
2019-04-29T10:44:42.271Z,32.77
2019-04-29T10:47:17.534Z,37.10
2019-04-29T10:49:49.752Z,33.93
2019-04-29T10:52:19.968Z,34.77
2019-04-29T10:54:51.176Z,28.13
2019-04-29T10:57:23.239Z,34.30
2019-04-29T11:00:00.795Z,31.27
2019-04-29T11:02:31.544Z,30.50
2019-04-29T11:05:07.878Z,29.03
2019-04-29T11:07:42.605Z,28.83
2019-04-29T11:10:27.490Z,35.03
2019-04-29T11:12:58.264Z,34.47
2019-04-29T11:15:32.573Z,35.30
2019-04-29T11:18:03.664Z,34.03
2019-04-29T11:20:33.922Z,32.17
2019-04-29T11:23:18.393Z,30.47
2019-04-29T11:25:52.700Z,28.50
2019-04-29T11:28:22.762Z,31.50
2019-04-29T11:30:52.597Z,28.80
2019-04-29T11:33:24.318Z,24.63
2019-04-29T11:36:03.836Z,29.87
2019-04-29T11:38:38.243Z,26.60
2019-04-29T11:41:05.767Z,30.13
2019-04-29T11:43:36.084Z,25.93
2019-04-29T11:46:09.875Z,25.20
2019-04-29T11:48:37.680Z,27.47
2019-04-29T11:51:09.447Z,29.20
2019-04-29T11:53:39.362Z,29.10
2019-04-29T11:56:09.223Z,29.60
2019-04-29T11:58:43.813Z,30.67
2019-04-29T12:01:38.603Z,28.13
2019-04-29T12:04:00.555Z,31.87
2019-04-29T12:06:31.696Z,32.40
2019-04-29T12:09:01.725Z,32.40
2019-04-29T12:11:35.807Z,34.10
2019-04-29T12:14:20.945Z,32.97
2019-04-29T12:16:54.791Z,31.30
2019-04-29T12:19:31.728Z,32.87
2019-04-29T12:22:04.968Z,31.73
2019-04-29T12:24:35.874Z,29.47
2019-04-29T12:27:05.814Z,29.10
2019-04-29T12:29:35.642Z,28.60
2019-04-29T12:32:25.023Z,32.40
2019-04-29T12:34:59.399Z,34.33
2019-04-29T12:37:31.304Z,31.80
2019-04-29T12:40:20.527Z,30.90
2019-04-29T12:43:11.328Z,37.70
2019-04-29T12:45:40.570Z,33.53
2019-04-29T12:48:23.435Z,35.37
2019-04-29T12:50:42.155Z,33.60
2019-04-29T12:53:12.162Z,36.37
2019-04-29T12:55:47.307Z,38.00
2019-04-29T12:58:19.313Z,37.40
2019-04-29T13:00:55.864Z,38.80
2019-04-29T13:03:22.107Z,39.03
2019-04-29T13:05:58.507Z,36.90
2019-04-29T13:08:27.689Z,37.70
2019-04-29T13:11:00.106Z,37.23
2019-04-29T13:13:30.507Z,36.50
2019-04-29T13:16:20.302Z,33.83
2019-04-29T13:18:55.832Z,38.07
2019-04-29T13:21:27.446Z,34.57
2019-04-29T13:24:12.777Z,34.60
2019-04-29T13:26:33.201Z,34.83
2019-04-29T13:29:01.599Z,33.80
2019-04-29T13:31:38.633Z,41.70
2019-04-29T13:34:22.420Z,35.33
2019-04-29T13:36:36.680Z,37.83
2019-04-29T13:39:08.672Z,34.83
2019-04-29T13:41:56.108Z,30.83
2019-04-29T13:44:10.259Z,33.47
2019-04-29T13:46:46.275Z,31.17
2019-04-29T13:49:41.438Z,33.53
2019-04-29T13:52:12.932Z,34.17
2019-04-29T13:54:44.273Z,33.43
2019-04-29T13:57:16.061Z,30.93
2019-04-29T13:59:50.660Z,29.27
2019-04-29T14:02:30.630Z,31.17
2019-04-29T14:04:55.964Z,30.80
2019-04-29T14:07:26.781Z,26.80
2019-04-29T14:09:56.495Z,27.60
2019-04-29T14:12:47.975Z,29.77
2019-04-29T14:17:31.665Z,26.50
2019-04-29T14:18:53.680Z,28.30
2019-04-29T14:20:00.976Z,28.73
2019-04-29T14:22:30.946Z,27.87
2019-04-29T14:25:00.694Z,29.20
2019-04-29T14:27:30.534Z,28.63
2019-04-29T14:30:03.203Z,32.07
2019-04-29T14:32:36.060Z,28.23
2019-04-29T14:35:23.686Z,29.00
2019-04-29T14:37:55.208Z,27.80
2019-04-29T14:40:25.190Z,29.43
2019-04-29T14:43:07.293Z,27.70
2019-04-29T14:45:48.250Z,27.37
2019-04-29T14:48:25.869Z,26.33
2019-04-29T14:50:56.098Z,28.00
2019-04-29T14:53:26.355Z,24.47
2019-04-29T14:55:56.233Z,26.43
2019-04-29T14:58:26.086Z,26.43
2019-04-29T15:00:58.037Z,25.67
2019-04-29T15:03:29.928Z,26.63
2019-04-29T15:05:59.743Z,22.00
2019-04-29T15:08:32.058Z,23.43
2019-04-29T15:11:04.186Z,23.30
2019-04-29T15:13:32.688Z,21.80
2019-04-29T15:16:16.154Z,24.27
2019-04-29T15:18:50.857Z,18.50
2019-04-29T15:21:32.115Z,17.17
2019-04-29T15:23:56.902Z,15.83
2019-04-29T15:26:26.658Z,16.17
2019-04-29T15:28:56.509Z,15.87
2019-04-29T15:31:26.361Z,17.20
2019-04-29T15:33:56.344Z,17.77
2019-04-29T15:36:26.134Z,14.80
2019-04-29T15:39:08.884Z,15.47
2019-04-29T15:41:31.285Z,16.30
2019-04-29T15:44:07.138Z,16.53
2019-04-29T15:46:45.256Z,13.77
2019-04-29T15:49:01.817Z,16.83
2019-04-29T15:51:34.034Z,15.50
2019-04-29T15:54:03.915Z,15.77
2019-04-29T15:56:38.497Z,17.77
2019-04-29T15:59:08.646Z,17.30
2019-04-29T16:01:41.103Z,18.33
2019-04-29T16:04:09.913Z,18.20
2019-04-29T16:06:41.523Z,17.87
2019-04-29T16:09:15.879Z,16.87
2019-04-29T16:11:56.098Z,17.67
2019-04-29T16:14:27.320Z,16.63
2019-04-29T16:16:57.320Z,15.23
2019-04-29T16:19:28.028Z,15.43
2019-04-29T16:21:57.885Z,15.30
2019-04-29T16:24:37.752Z,15.63
2019-04-29T16:27:07.424Z,18.37
2019-04-29T16:29:32.563Z,17.10
2019-04-29T16:32:04.891Z,19.60
2019-04-29T16:34:37.384Z,22.13
2019-04-29T16:37:07.113Z,24.30
2019-04-29T16:39:36.963Z,25.67
2019-04-29T16:42:12.495Z,25.07
2019-04-29T16:44:42.748Z,26.40
2019-04-29T16:47:13.951Z,27.60
2019-04-29T16:49:44.662Z,25.33
2019-04-29T16:52:14.717Z,25.43
2019-04-29T16:54:44.583Z,22.37
2019-04-29T16:57:14.404Z,23.40
2019-04-29T16:59:44.260Z,21.00
2019-04-29T17:02:19.379Z,24.10
2019-04-29T17:04:48.455Z,25.40
2019-04-29T17:07:18.282Z,24.70
2019-04-29T17:09:53.278Z,26.53
2019-04-29T17:12:29.435Z,28.43
2019-04-29T17:15:04.068Z,24.60
2019-04-29T17:17:31.165Z,24.97
2019-04-29T17:20:01.558Z,25.07
2019-04-29T17:22:35.583Z,33.37
2019-04-29T17:25:03.018Z,24.40
2019-04-29T17:27:42.312Z,24.77
2019-04-29T17:30:20.415Z,22.60
2019-04-29T17:32:56.374Z,25.30
2019-04-29T17:35:28.381Z,26.00
2019-04-29T17:37:58.226Z,29.63
2019-04-29T17:40:28.546Z,26.73
2019-04-29T17:43:09.450Z,31.30
2019-04-29T17:45:49.834Z,31.73
2019-04-29T17:48:21.281Z,28.00
2019-04-29T17:50:55.900Z,29.83
2019-04-29T17:53:30.104Z,30.03
2019-04-29T17:56:01.629Z,31.23
2019-04-29T17:58:36.305Z,35.73
2019-04-29T18:01:25.960Z,33.60
2019-04-29T18:03:57.094Z,30.40
2019-04-29T18:06:31.691Z,30.10
2019-04-29T18:09:08.934Z,30.37
2019-04-29T18:11:50.499Z,33.87
2019-04-29T18:14:10.292Z,30.03
2019-04-29T18:16:43.690Z,29.93
2019-04-29T18:19:17.076Z,33.10
2019-04-29T18:22:07.370Z,30.47
2019-04-29T18:24:50.837Z,31.83
2019-04-29T18:27:25.392Z,35.03
2019-04-29T18:29:55.265Z,32.57
2019-04-29T18:32:35.048Z,37.63
2019-04-29T18:34:56.495Z,34.50
2019-04-29T18:37:26.388Z,38.20
2019-04-29T18:39:57.712Z,35.30
2019-04-29T18:42:28.070Z,36.87
2019-04-29T18:45:00.508Z,37.10
2019-04-29T18:47:34.800Z,36.63
2019-04-29T18:50:00.966Z,36.93
2019-04-29T18:52:30.795Z,40.60
2019-04-29T18:55:00.579Z,41.70
2019-04-29T18:57:31.039Z,43.00
2019-04-29T19:00:04.970Z,44.73
2019-04-29T19:02:32.563Z,44.63
2019-04-29T19:05:04.095Z,45.00
2019-04-29T19:07:37.294Z,43.43
2019-04-29T19:10:13.016Z,48.17
2019-04-29T19:12:39.407Z,45.67
2019-04-29T19:15:11.678Z,46.80
2019-04-29T19:17:41.176Z,47.70
2019-04-29T19:20:18.345Z,52.00
2019-04-29T19:22:47.310Z,56.93
2019-04-29T19:25:16.827Z,57.80
2019-04-29T19:27:46.598Z,60.87
2019-04-29T19:30:21.167Z,57.53
2019-04-29T19:32:48.150Z,52.77
2019-04-29T19:35:18.040Z,64.37
2019-04-29T19:37:47.900Z,69.87
2019-04-29T19:40:18.171Z,63.73
2019-04-29T19:42:47.925Z,65.03
2019-04-29T19:45:17.902Z,63.17
2019-04-29T19:47:53.046Z,70.63
2019-04-29T19:50:19.873Z,63.67
2019-04-29T19:52:51.673Z,62.17
2019-04-29T19:55:22.923Z,64.17
2019-04-29T19:57:53.095Z,67.30
2019-04-29T20:00:29.082Z,71.13
2019-04-29T20:02:57.262Z,67.73
2019-04-29T20:05:41.330Z,67.50
2019-04-29T20:08:21.552Z,64.67
2019-04-29T20:10:49.561Z,66.83
2019-04-29T20:13:15.252Z,68.93
2019-04-29T20:16:09.563Z,62.80
2019-04-29T20:18:58.300Z,64.77
2019-04-29T20:21:24.941Z,71.53
2019-04-29T20:23:53.144Z,68.73
2019-04-29T20:26:28.969Z,68.87
2019-04-29T20:28:55.601Z,68.37
2019-04-29T20:31:26.048Z,68.43
2019-04-29T20:33:58.625Z,68.60
2019-04-29T20:36:38.178Z,70.43
2019-04-29T20:38:59.207Z,69.43
2019-04-29T20:41:40.188Z,66.47
2019-04-29T20:44:04.757Z,67.00
2019-04-29T20:46:43.297Z,64.20
2019-04-29T20:49:05.675Z,75.03
2019-04-29T20:51:48.808Z,72.80
2019-04-29T20:54:09.008Z,67.63
2019-04-29T20:56:41.645Z,78.37
2019-04-29T20:59:12.903Z,75.07
2019-04-29T21:02:11.262Z,68.40
2019-04-29T21:04:39.303Z,67.40
2019-04-29T21:07:03.630Z,69.53
2019-04-29T21:09:35.654Z,69.13
2019-04-29T21:12:20.421Z,69.20
2019-04-29T21:14:50.093Z,74.83
2019-04-29T21:17:28.665Z,73.97
2019-04-29T21:19:51.514Z,77.60
2019-04-29T21:22:23.565Z,79.13
2019-04-29T21:24:53.838Z,80.13
2019-04-29T21:27:29.057Z,82.80
2019-04-29T21:30:00.978Z,78.53
2019-04-29T21:32:37.122Z,80.37
2019-04-29T21:35:10.196Z,81.17
2019-04-29T21:37:44.873Z,82.27
2019-04-29T21:40:19.845Z,82.97
2019-04-29T21:43:00.270Z,81.90
2019-04-29T21:45:30.262Z,79.63
2019-04-29T21:48:00.137Z,87.47
2019-04-29T21:50:34.597Z,85.43
2019-04-29T21:53:02.851Z,86.10
2019-04-29T21:55:32.835Z,102.57
2019-04-29T21:58:02.666Z,84.73
2019-04-29T22:00:32.881Z,90.63
2019-04-29T22:03:03.156Z,84.87
2019-04-29T22:05:36.289Z,84.37
2019-04-29T22:08:16.222Z,87.13
2019-04-29T22:14:05.494Z,89.50
2019-04-29T22:16:31.255Z,86.97
2019-04-29T22:19:03.357Z,95.73
2019-04-29T22:21:37.791Z,92.40
2019-04-29T22:24:11.545Z,98.03
2019-04-29T22:26:45.796Z,91.97
2019-04-29T22:29:37.112Z,88.73
2019-04-29T22:31:56.525Z,92.40
2019-04-29T22:34:31.628Z,87.80
2019-04-29T22:37:15.286Z,98.97
2019-04-29T22:39:49.023Z,87.63
2019-04-29T22:42:37.452Z,88.33
2019-04-29T22:45:29.454Z,88.93
2019-04-29T22:48:12.178Z,84.80
2019-04-29T22:50:33.656Z,86.83
2019-04-29T22:53:06.065Z,94.90
2019-04-29T22:55:39.321Z,91.33
2019-04-29T22:58:12.639Z,90.50
2019-04-29T23:00:49.675Z,96.47
2019-04-29T23:03:24.806Z,99.93
2019-04-29T23:06:00.139Z,94.33
2019-04-29T23:08:29.774Z,90.83
2019-04-29T23:11:10.102Z,92.60
2019-04-29T23:13:45.562Z,90.30
2019-04-29T23:16:22.177Z,86.13
2019-04-29T23:18:45.934Z,96.10
2019-04-29T23:21:43.053Z,92.90
2019-04-29T23:24:26.115Z,97.73
2019-04-29T23:29:59.996Z,92.70
2019-04-29T23:32:27.895Z,92.50
2019-04-29T23:35:09.728Z,84.30
2019-04-29T23:37:37.725Z,98.10
2019-04-29T23:40:09.232Z,99.90
2019-04-29T23:45:35.127Z,97.63
2019-04-29T23:48:05.838Z,92.17
2019-04-29T23:50:42.114Z,96.07
2019-04-29T23:53:12.492Z,104.83
2019-04-29T23:55:42.638Z,99.07
2019-04-29T23:58:52.256Z,95.23
